La Estrella, Argentina
Current Conditions -  °F | °C
As of 11:00 PM on Friday 19 Dec 2014 (Local Time) from SASJ Reporting Station
Clear Clear  
Wind Chill: 25°   Ceiling: Unl
Heat Index: 26°   Visibility: 6mi
Dew Point: 19°   Wind: 3mph
Humidity: 69%   Direction: 360°N
Pressure: 29.71"   Gusts: NA
Location:  23.82°S, 64.08°W
Report Text: SASJ 200200Z 36003KT CAVOK 25/19 Q1006
Loading
Personal Weather Stations






























Interactive Weather Map New forecast layout! Learn more

10-Day Weather Forecast

Advertisements
Track Severe Weather on mobile